createdAt,value
2019-02-02T00:02:43.180Z,14.57
2019-02-02T00:07:49.275Z,15.12
2019-02-02T00:12:55.447Z,14.57
2019-02-02T00:18:01.457Z,13.48
2019-02-02T00:23:07.410Z,14.14
2019-02-02T00:28:14.082Z,15.79
2019-02-02T00:33:20.197Z,16.79
2019-02-02T00:38:26.176Z,15.87
2019-02-02T00:43:32.184Z,15.33
2019-02-02T00:48:38.174Z,14.92
2019-02-02T00:53:44.251Z,15.03
2019-02-02T00:58:50.842Z,15.24
2019-02-02T01:03:56.967Z,13.64
2019-02-02T01:09:03.060Z,21.73
2019-02-02T01:14:09.136Z,13.21
2019-02-02T01:19:15.171Z,15.27
2019-02-02T01:24:21.182Z,30.64
2019-02-02T01:29:27.174Z,16.65
2019-02-02T01:34:33.160Z,15.47
2019-02-02T01:39:39.159Z,16.28
2019-02-02T01:44:45.182Z,14.27
2019-02-02T01:49:51.176Z,13.41
2019-02-02T01:54:57.184Z,21.95
2019-02-02T02:00:03.168Z,24.16
2019-02-02T02:05:09.163Z,12.32
2019-02-02T02:10:15.166Z,12.52
2019-02-02T02:15:21.213Z,12.75
2019-02-02T02:20:27.185Z,12.03
2019-02-02T02:25:33.240Z,12.57
2019-02-02T02:30:39.217Z,14.36
2019-02-02T02:35:45.232Z,14.90
2019-02-02T02:40:51.263Z,17.50
2019-02-02T02:45:57.259Z,18.09
2019-02-02T02:51:03.264Z,16.00
2019-02-02T02:56:09.269Z,18.49
2019-02-02T03:01:15.275Z,31.85
2019-02-02T03:06:21.261Z,16.83
2019-02-02T03:11:27.237Z,18.77
2019-02-02T03:16:33.231Z,16.88
2019-02-02T03:21:39.234Z,31.00
2019-02-02T03:26:45.221Z,34.46
2019-02-02T03:31:51.385Z,18.15
2019-02-02T03:36:57.236Z,19.17
2019-02-02T03:42:03.220Z,41.39
2019-02-02T03:47:09.293Z,38.18
2019-02-02T03:52:15.313Z,18.91
2019-02-02T03:57:21.278Z,18.85
2019-02-02T04:02:27.306Z,18.44
2019-02-02T04:07:33.346Z,32.50
2019-02-02T04:12:39.355Z,19.21
2019-02-02T04:17:45.378Z,34.08
2019-02-02T04:22:51.384Z,19.88
2019-02-02T04:27:57.408Z,16.88
2019-02-02T04:33:03.511Z,14.81
2019-02-02T04:38:09.431Z,16.97
2019-02-02T04:43:15.424Z,17.71
2019-02-02T04:48:21.418Z,16.46
2019-02-02T04:53:27.415Z,16.94
2019-02-02T04:58:33.442Z,17.42
2019-02-02T05:03:39.431Z,17.25
2019-02-02T05:08:45.433Z,18.59
2019-02-02T05:13:51.417Z,35.85
2019-02-02T05:18:57.409Z,37.44
2019-02-02T05:24:03.380Z,21.54
2019-02-02T05:29:09.376Z,21.67
2019-02-02T05:34:15.479Z,20.86
2019-02-02T05:39:21.723Z,21.82
2019-02-02T05:44:27.890Z,19.99
2019-02-02T05:49:33.928Z,20.00
2019-02-02T05:54:40.038Z,35.53
2019-02-02T05:59:52.563Z,21.25
2019-02-02T06:04:51.708Z,20.96
2019-02-02T06:09:57.770Z,21.02
2019-02-02T06:15:03.866Z,19.48
2019-02-02T06:20:09.909Z,19.65
2019-02-02T06:25:16.063Z,36.35
2019-02-02T06:30:22.575Z,20.38
2019-02-02T06:35:28.739Z,20.49
2019-02-02T06:40:34.803Z,18.48
2019-02-02T06:45:40.930Z,18.16
2019-02-02T06:50:46.979Z,17.72
2019-02-02T06:55:53.026Z,19.55
2019-02-02T07:00:59.099Z,37.51
2019-02-02T07:06:05.143Z,30.83
2019-02-02T07:11:11.230Z,20.19
2019-02-02T07:16:17.295Z,20.08
2019-02-02T07:21:23.520Z,19.44
2019-02-02T07:26:29.599Z,21.05
2019-02-02T07:31:36.952Z,17.63
2019-02-02T07:36:41.917Z,16.70
2019-02-02T07:41:48.162Z,17.41
2019-02-02T07:46:54.224Z,17.52
2019-02-02T07:52:00.312Z,16.82
2019-02-02T07:57:06.360Z,15.53
2019-02-02T08:02:12.428Z,14.62
2019-02-02T08:07:18.504Z,27.29
2019-02-02T08:12:24.631Z,14.23
2019-02-02T08:17:32.390Z,27.35
2019-02-02T08:22:36.697Z,14.64
2019-02-02T08:27:42.796Z,16.03
2019-02-02T08:32:49.092Z,26.34
2019-02-02T08:37:55.161Z,17.96
2019-02-02T08:43:01.205Z,30.44
2019-02-02T08:48:07.889Z,19.18
2019-02-02T08:53:14.331Z,19.71
2019-02-02T08:58:20.488Z,19.13
2019-02-02T09:03:26.562Z,18.91
2019-02-02T09:08:32.717Z,36.43
2019-02-02T09:13:38.770Z,17.67
2019-02-02T09:18:44.900Z,17.91
2019-02-02T09:23:51.030Z,18.91
2019-02-02T09:28:57.090Z,19.44
2019-02-02T09:34:03.168Z,20.38
2019-02-02T09:39:09.316Z,36.44
2019-02-02T09:44:16.299Z,19.90
2019-02-02T09:49:22.460Z,18.92
2019-02-02T09:54:28.598Z,18.85
2019-02-02T09:59:34.682Z,15.85
2019-02-02T10:04:43.870Z,15.46
2019-02-02T10:09:49.955Z,28.21
2019-02-02T10:14:56.529Z,30.14
2019-02-02T10:20:02.654Z,26.51
2019-02-02T10:25:08.769Z,13.62
2019-02-02T10:30:14.815Z,14.18
2019-02-02T10:35:21.076Z,13.98
2019-02-02T10:40:29.905Z,14.13
2019-02-02T10:45:33.210Z,14.70
2019-02-02T10:50:39.250Z,13.58
2019-02-02T10:55:45.312Z,13.70
2019-02-02T11:00:51.384Z,12.63
2019-02-02T11:05:57.607Z,13.47
2019-02-02T11:11:03.747Z,25.15
2019-02-02T11:16:09.806Z,14.88
2019-02-02T11:21:15.853Z,14.00
2019-02-02T11:26:21.945Z,13.02
2019-02-02T11:31:27.986Z,27.44
2019-02-02T11:36:34.111Z,24.70
2019-02-02T11:41:40.091Z,14.03
2019-02-02T11:46:46.181Z,26.66
2019-02-02T11:51:52.293Z,29.21
2019-02-02T11:56:58.316Z,16.67
2019-02-02T12:02:14.250Z,28.45
2019-02-02T12:07:09.997Z,17.69
2019-02-02T12:12:16.046Z,19.63
2019-02-02T12:17:22.089Z,19.39
2019-02-02T12:22:28.475Z,24.40
2019-02-02T12:27:34.493Z,39.54
2019-02-02T12:32:40.496Z,23.58
2019-02-02T12:37:46.568Z,21.74
2019-02-02T12:42:52.956Z,23.57
2019-02-02T12:47:59.083Z,26.26
2019-02-02T12:53:05.114Z,26.69
2019-02-02T12:58:11.129Z,23.74
2019-02-02T13:03:17.128Z,23.27
2019-02-02T13:08:23.201Z,21.30
2019-02-02T13:13:29.300Z,24.23
2019-02-02T13:18:35.434Z,20.25
2019-02-02T13:23:41.532Z,21.10
2019-02-02T13:28:47.507Z,21.17
2019-02-02T13:33:53.664Z,21.18
2019-02-02T13:38:59.868Z,22.68
2019-02-02T13:44:06.078Z,24.92
2019-02-02T13:49:12.153Z,43.57
2019-02-02T13:54:18.247Z,46.24
2019-02-02T13:59:25.587Z,24.73
2019-02-02T14:04:31.618Z,23.65
2019-02-02T14:09:37.613Z,44.96
2019-02-02T14:14:43.601Z,26.29
2019-02-02T14:19:49.637Z,22.14
2019-02-02T14:24:55.698Z,22.70
2019-02-02T14:30:01.804Z,20.57
2019-02-02T14:41:37.873Z,23.50
2019-02-02T14:45:26.666Z,21.05
2019-02-02T14:50:31.981Z,19.50
2019-02-02T14:55:35.018Z,41.40
2019-02-02T15:00:41.053Z,23.98
2019-02-02T15:05:47.035Z,23.85
2019-02-02T15:10:53.055Z,24.48
2019-02-02T15:15:59.121Z,48.11
2019-02-02T15:21:05.307Z,29.64
2019-02-02T15:26:11.406Z,61.47
2019-02-02T15:31:17.443Z,33.72
2019-02-02T15:36:23.484Z,62.32
2019-02-02T15:41:29.778Z,32.18
2019-02-02T15:46:35.773Z,31.21
2019-02-02T15:51:41.808Z,56.59
2019-02-02T15:56:47.818Z,36.90
2019-02-02T16:01:53.795Z,66.53
2019-02-02T16:06:59.794Z,67.71
2019-02-02T16:12:05.912Z,33.78
2019-02-02T16:17:11.958Z,32.05
2019-02-02T16:22:18.080Z,32.15
2019-02-02T16:27:24.102Z,31.99
2019-02-02T16:32:30.270Z,34.31
2019-02-02T16:37:36.458Z,32.67
2019-02-02T16:42:42.386Z,58.91
2019-02-02T16:47:48.441Z,50.30
2019-02-02T16:52:54.507Z,26.83
2019-02-02T16:58:00.714Z,27.90
2019-02-02T17:03:06.744Z,47.36
2019-02-02T17:08:12.764Z,31.26
2019-02-02T17:13:18.822Z,54.23
2019-02-02T17:18:24.859Z,30.78
2019-02-02T17:23:30.896Z,34.23
2019-02-02T17:28:36.967Z,35.13
2019-02-02T17:33:42.986Z,35.56
2019-02-02T17:38:49.021Z,34.99
2019-02-02T17:43:55.015Z,35.39
2019-02-02T17:49:01.026Z,36.70
2019-02-02T17:54:07.108Z,36.67
2019-02-02T17:59:13.149Z,32.93
2019-02-02T18:04:19.174Z,36.05
2019-02-02T18:09:25.225Z,63.51
2019-02-02T18:14:31.306Z,33.64
2019-02-02T18:19:37.401Z,30.21
2019-02-02T18:24:43.390Z,34.00
2019-02-02T18:29:49.633Z,57.59
2019-02-02T18:34:55.730Z,58.57
2019-02-02T18:40:02.048Z,29.64
2019-02-02T18:45:08.097Z,30.64
2019-02-02T18:50:14.271Z,31.59
2019-02-02T18:55:20.366Z,31.35
2019-02-02T19:00:26.395Z,31.31
2019-02-02T19:05:32.555Z,57.92
2019-02-02T19:10:38.603Z,57.72
2019-02-02T19:15:44.971Z,32.65
2019-02-02T19:20:51.129Z,36.24
2019-02-02T19:25:57.178Z,30.50
2019-02-02T19:31:03.468Z,60.70
2019-02-02T19:36:09.572Z,29.92
2019-02-02T19:41:15.657Z,30.46
2019-02-02T19:46:21.761Z,32.02
2019-02-02T19:51:27.775Z,31.41
2019-02-02T19:56:33.966Z,31.93
2019-02-02T20:01:40.100Z,31.96
2019-02-02T20:06:46.157Z,59.49
2019-02-02T20:11:52.350Z,32.07
2019-02-02T20:16:58.833Z,58.52
2019-02-02T20:22:04.943Z,55.00
2019-02-02T20:27:11.079Z,29.30
2019-02-02T20:32:17.142Z,30.10
2019-02-02T20:37:23.187Z,30.13
2019-02-02T20:42:29.228Z,28.19
2019-02-02T20:47:35.239Z,50.21
2019-02-02T20:52:47.695Z,25.94
2019-02-02T20:57:46.888Z,26.73
2019-02-02T21:02:52.933Z,46.80
2019-02-02T21:07:58.983Z,27.31
2019-02-02T21:13:05.019Z,28.34
2019-02-02T21:18:11.962Z,29.09
2019-02-02T21:23:16.710Z,30.58
2019-02-02T21:28:22.856Z,30.59
2019-02-02T21:33:28.901Z,31.42
2019-02-02T21:38:34.988Z,32.92
2019-02-02T21:43:41.079Z,60.81
2019-02-02T21:48:47.205Z,35.11
2019-02-02T21:53:53.320Z,35.16
2019-02-02T21:58:59.402Z,37.06
2019-02-02T22:04:05.445Z,38.36
2019-02-02T22:09:11.492Z,40.46
2019-02-02T22:14:17.552Z,42.91
2019-02-02T22:19:23.695Z,43.71
2019-02-02T22:24:29.865Z,83.56
2019-02-02T22:29:35.867Z,88.02
2019-02-02T22:34:41.923Z,51.85
2019-02-02T22:39:47.946Z,92.33
2019-02-02T22:44:53.969Z,51.69
2019-02-02T22:49:59.987Z,89.98
2019-02-02T22:55:06.068Z,52.94
2019-02-02T23:00:12.081Z,53.31
2019-02-02T23:05:18.130Z,104.55
2019-02-02T23:10:24.226Z,55.54
2019-02-02T23:15:30.489Z,56.01
2019-02-02T23:20:36.522Z,52.38
2019-02-02T23:25:42.574Z,47.06
2019-02-02T23:30:48.631Z,95.96
2019-02-02T23:35:54.668Z,51.86
2019-02-02T23:41:00.687Z,50.97
2019-02-02T23:46:06.808Z,52.64
2019-02-02T23:51:12.863Z,49.63
2019-02-02T23:56:18.918Z,48.70
